Time;durP1;ratioP1;P1;durP2;ratioP2;P2;SDS_P1;SDS_P2;PMS_P1;PMS_P2;Temp;Humidity;BMP_temperature;BMP_pressure;BME280_temperature;BME280_humidity;BME280_pressure;Samples;Min_cycle;Max_cycle;Signal;HPM_P1;HPM_P2
2022/02/26 00:00:24;;;;;;;0.40;0.30;;;;;;;5.11;100.00;101860.38;5013887;28;21012;-71
2022/02/26 00:02:51;;;;;;;0.40;0.30;;;;;;;5.05;100.00;101870.19;5014270;28;20471;-70
2022/02/26 00:05:18;;;;;;;0.40;0.23;;;;;;;5.05;100.00;101872.03;5013628;28;20953;-70
2022/02/26 00:07:44;;;;;;;0.40;0.30;;;;;;;5.04;100.00;101870.38;5014593;28;20461;-70
2022/02/26 00:10:11;;;;;;;0.40;0.20;;;;;;;5.10;100.00;101872.16;5013872;28;20452;-70
2022/02/26 00:12:37;;;;;;;0.40;0.30;;;;;;;5.09;100.00;101883.97;5014190;28;20876;-70
2022/02/26 00:15:04;;;;;;;0.40;0.30;;;;;;;5.08;100.00;101882.31;5014219;28;20484;-70
2022/02/26 00:17:33;;;;;;;0.40;0.20;;;;;;;5.10;100.00;101884.78;5029894;22;20945;-66
2022/02/26 00:20:00;;;;;;;0.40;0.30;;;;;;;5.07;100.00;101886.03;5033960;28;20437;-66
2022/02/26 00:22:26;;;;;;;0.40;0.30;;;;;;;5.07;100.00;101883.34;5034047;28;20439;-66
2022/02/26 00:24:53;;;;;;;0.40;0.30;;;;;;;5.12;100.00;101888.84;5033585;28;20439;-67
2022/02/26 00:27:20;;;;;;;0.40;0.20;;;;;;;5.15;100.00;101888.41;5033644;28;20975;-67
2022/02/26 00:29:46;;;;;;;0.40;0.30;;;;;;;5.15;100.00;101888.41;5033957;28;20455;-68
2022/02/26 00:32:13;;;;;;;0.40;0.30;;;;;;;5.16;100.00;101900.75;5033508;28;20795;-68
2022/02/26 00:34:41;;;;;;;0.40;0.30;;;;;;;5.15;100.00;101892.94;5017918;28;20475;-66
2022/02/26 00:37:08;;;;;;;0.40;0.30;;;;;;;5.16;100.00;101887.34;5033252;28;20454;-67
2022/02/26 00:39:34;;;;;;;0.40;0.20;;;;;;;5.15;100.00;101890.25;5033885;28;20485;-67
2022/02/26 00:42:01;;;;;;;0.40;0.30;;;;;;;5.00;100.00;101894.22;5033973;28;20455;-67
2022/02/26 00:44:27;;;;;;;0.57;0.57;;;;;;;5.06;100.00;101901.34;5033785;28;20440;-67
2022/02/26 00:46:54;;;;;;;0.40;0.30;;;;;;;5.04;100.00;101902.59;5033194;28;20439;-67
2022/02/26 00:52:06;;;;;;;0.40;0.30;;;;;;;5.13;100.00;101925.38;5032583;28;20438;-67
2022/02/26 00:54:33;;;;;;;0.40;0.30;;;;;;;5.12;100.00;101926.44;5033491;28;20537;-67
2022/02/26 00:56:59;;;;;;;0.40;0.20;;;;;;;5.05;100.00;101923.88;5033566;28;20447;-67
2022/02/26 00:59:26;;;;;;;0.40;0.30;;;;;;;5.10;100.00;101931.25;5033348;28;20463;-68
2022/02/26 01:01:52;;;;;;;0.40;0.30;;;;;;;5.12;100.00;101931.00;5032930;28;20458;-67
2022/02/26 01:04:19;;;;;;;0.40;0.30;;;;;;;5.10;99.80;101939.28;5033647;28;20435;-67
2022/02/26 01:06:45;;;;;;;0.40;0.30;;;;;;;5.13;99.63;101941.50;5019439;28;20444;-68
2022/02/26 01:09:13;;;;;;;0.40;0.30;;;;;;;5.14;99.18;101940.47;5028024;28;20463;-67
2022/02/26 01:11:39;;;;;;;0.40;0.30;;;;;;;5.13;99.54;101944.19;5032925;28;20443;-67
2022/02/26 01:14:06;;;;;;;0.40;0.20;;;;;;;5.18;99.38;101952.41;5033237;28;20447;-66
2022/02/26 01:16:33;;;;;;;0.40;0.30;;;;;;;5.15;99.75;101958.22;5033017;28;20487;-68
2022/02/26 01:18:59;;;;;;;0.40;0.30;;;;;;;5.19;99.46;101962.09;5032986;28;20471;-67
2022/02/26 01:21:25;;;;;;;0.40;0.20;;;;;;;5.18;99.17;101963.13;5032537;28;20451;-67
2022/02/26 01:23:52;;;;;;;0.40;0.20;;;;;;;5.20;98.75;101966.41;5032888;28;20450;-68
2022/02/26 01:26:21;;;;;;;0.40;0.30;;;;;;;5.17;99.27;101966.03;5032819;28;20462;-67
2022/02/26 01:28:48;;;;;;;0.40;0.30;;;;;;;5.17;98.93;101961.47;5033021;28;20471;-68
2022/02/26 01:31:15;;;;;;;0.40;0.30;;;;;;;5.17;98.56;101969.53;5032345;28;20891;-68
2022/02/26 01:33:42;;;;;;;0.40;0.30;;;;;;;5.18;98.19;101976.56;5013509;28;20455;-67
2022/02/26 01:36:08;;;;;;;0.40;0.20;;;;;;;5.19;98.26;101970.16;5028805;28;20549;-67
2022/02/26 01:38:35;;;;;;;0.40;0.30;;;;;;;5.16;98.88;101975.16;5015219;28;20841;-67
2022/02/26 01:41:03;;;;;;;0.40;0.20;;;;;;;5.21;98.59;101970.72;5019568;28;20451;-67
2022/02/26 01:43:32;;;;;;;0.40;0.30;;;;;;;5.22;99.07;101985.81;5032716;28;20816;-66
2022/02/26 01:45:58;;;;;;;0.40;0.30;;;;;;;5.23;99.25;101978.56;5032828;28;20816;-67
2022/02/26 01:48:25;;;;;;;0.40;0.30;;;;;;;5.20;99.15;101976.31;5032529;28;20467;-67
2022/02/26 01:50:52;;;;;;;0.40;0.20;;;;;;;5.18;98.84;101981.94;5032896;28;20451;-68
2022/02/26 01:53:18;;;;;;;0.50;0.47;;;;;;;5.22;98.45;101985.81;5032778;28;20451;-67
2022/02/26 01:55:45;;;;;;;0.40;0.20;;;;;;;5.13;98.22;101992.53;5032117;28;20483;-65
2022/02/26 01:58:11;;;;;;;0.40;0.30;;;;;;;5.16;98.78;101985.91;5032852;28;20466;-66
2022/02/26 02:00:39;;;;;;;0.40;0.30;;;;;;;5.15;98.11;101993.13;5032600;28;20462;-67
2022/02/26 02:03:05;;;;;;;0.40;0.30;;;;;;;5.15;98.34;102006.56;5019575;28;20451;-66
2022/02/26 02:05:32;;;;;;;0.40;0.30;;;;;;;5.13;98.47;102005.13;5030990;28;20455;-66
2022/02/26 02:07:59;;;;;;;0.40;0.20;;;;;;;5.17;98.54;102004.44;5032062;28;20879;-67
2022/02/26 02:10:27;;;;;;;0.40;0.30;;;;;;;5.15;98.53;102005.75;5021789;28;20447;-66
2022/02/26 02:12:53;;;;;;;0.40;0.30;;;;;;;5.18;98.72;102013.31;5032519;28;20447;-67
2022/02/26 02:15:31;;;;;;;0.40;0.20;;;;;;;5.21;97.97;102010.19;5031942;28;20493;-67
2022/02/26 02:17:59;;;;;;;0.40;0.20;;;;;;;5.17;98.72;102012.50;5018564;28;20900;-67
2022/02/26 02:20:26;;;;;;;0.40;0.23;;;;;;;5.18;98.65;102000.75;5032184;28;20443;-66
2022/02/26 02:22:54;;;;;;;0.40;0.30;;;;;;;5.19;98.84;102013.13;5032575;28;20458;-67
2022/02/26 02:25:27;;;;;;;0.40;0.30;;;;;;;5.22;98.89;102015.34;5032527;28;20447;-66
2022/02/26 02:27:54;;;;;;;0.40;0.30;;;;;;;5.22;98.75;102009.97;5031634;28;20466;-67
2022/02/26 02:30:20;;;;;;;0.40;0.20;;;;;;;5.19;98.42;102018.50;5032274;28;20474;-66
2022/02/26 02:32:47;;;;;;;0.40;0.30;;;;;;;5.20;98.39;102016.63;5032101;28;21087;-67
2022/02/26 02:35:23;;;;;;;0.40;0.30;;;;;;;5.20;98.49;102014.75;5034939;28;20482;-66
2022/02/26 02:37:50;;;;;;;0.40;0.30;;;;;;;5.19;98.87;102023.84;5036150;28;20473;-67
2022/02/26 02:40:18;;;;;;;0.40;0.30;;;;;;;5.18;98.50;102024.91;5035902;28;20451;-66
2022/02/26 02:42:44;;;;;;;0.40;0.23;;;;;;;5.17;98.72;102030.50;5035448;28;20493;-68
2022/02/26 02:45:11;;;;;;;0.40;0.30;;;;;;;5.16;98.78;102035.06;5036171;28;20434;-66
2022/02/26 02:47:37;;;;;;;0.40;0.20;;;;;;;5.16;99.33;102037.75;5035691;28;20826;-66
2022/02/26 02:50:05;;;;;;;0.40;0.30;;;;;;;5.19;98.92;102045.34;5035233;28;20450;-65
2022/02/26 02:52:32;;;;;;;0.40;0.30;;;;;;;5.19;99.00;102045.34;5035852;28;20459;-66
2022/02/26 02:54:58;;;;;;;0.40;0.30;;;;;;;5.23;99.24;102048.41;5035116;28;20940;-68
2022/02/26 02:57:26;;;;;;;0.40;0.30;;;;;;;5.25;99.41;102052.47;5035606;28;20454;-66
2022/02/26 02:59:52;;;;;;;0.40;0.30;;;;;;;5.26;98.85;102050.59;5035368;28;20480;-67
2022/02/26 03:02:19;;;;;;;0.60;0.60;;;;;;;5.20;99.48;102051.53;5035307;28;20448;-67
2022/02/26 03:04:45;;;;;;;0.40;0.30;;;;;;;5.22;99.32;102060.16;5035391;28;20443;-67
2022/02/26 03:07:12;;;;;;;0.40;0.30;;;;;;;5.24;99.31;102052.72;5035049;28;20443;-66
2022/02/26 03:09:38;;;;;;;0.40;0.30;;;;;;;5.17;99.47;102047.44;5035539;28;20451;-67
2022/02/26 03:12:06;;;;;;;0.40;0.30;;;;;;;5.15;99.65;102054.91;5035111;28;20454;-69
2022/02/26 03:14:33;;;;;;;0.40;0.20;;;;;;;5.15;99.57;102054.91;5034886;28;20443;-66
2022/02/26 03:17:00;;;;;;;0.40;0.20;;;;;;;5.16;99.57;102064.59;5035181;28;20479;-66
2022/02/26 03:19:26;;;;;;;0.40;0.30;;;;;;;5.17;99.84;102068.09;5035190;28;20498;-67
2022/02/26 03:21:53;;;;;;;0.40;0.20;;;;;;;5.14;100.00;102069.38;5035116;28;20450;-65
2022/02/26 03:24:19;;;;;;;0.40;0.20;;;;;;;5.11;100.00;102074.38;5035321;28;20451;-64
2022/02/26 03:26:50;;;;;;;0.40;0.30;;;;;;;5.18;99.98;102078.63;5034195;28;20443;-69
2022/02/26 03:29:16;;;;;;;0.40;0.20;;;;;;;5.12;100.00;102070.66;5033546;28;20483;-69
2022/02/26 03:31:46;;;;;;;0.40;0.20;;;;;;;5.10;100.00;102078.94;5034267;28;20956;-67
2022/02/26 03:34:13;;;;;;;0.40;0.20;;;;;;;5.02;100.00;102082.75;5034685;28;20447;-67
2022/02/26 03:36:39;;;;;;;0.40;0.30;;;;;;;5.09;99.82;102081.84;5034682;28;20475;-68
2022/02/26 03:39:06;;;;;;;0.40;0.20;;;;;;;5.07;100.00;102084.75;5034281;28;20467;-66
2022/02/26 03:41:33;;;;;;;0.40;0.20;;;;;;;4.87;100.00;102094.94;5034509;28;20454;-68
2022/02/26 03:43:59;;;;;;;0.40;0.23;;;;;;;4.88;100.00;102102.78;5034806;28;20447;-67
2022/02/26 03:46:26;;;;;;;0.40;0.30;;;;;;;4.86;100.00;102099.47;5029467;28;20961;-68
2022/02/26 03:48:53;;;;;;;0.40;0.30;;;;;;;4.90;100.00;102106.03;5021467;28;20463;-67
2022/02/26 03:51:20;;;;;;;0.40;0.30;;;;;;;4.84;100.00;102109.63;5034624;28;20462;-67
2022/02/26 03:53:46;;;;;;;0.40;0.30;;;;;;;4.86;100.00;102115.59;5014814;28;20853;-69
2022/02/26 03:56:13;;;;;;;0.40;0.20;;;;;;;4.86;100.00;102118.28;5016657;28;20494;-68
2022/02/26 03:58:40;;;;;;;0.40;0.20;;;;;;;4.85;100.00;102119.31;5034067;28;21019;-67
2022/02/26 04:01:06;;;;;;;0.40;0.20;;;;;;;4.83;100.00;102120.59;5032473;28;20459;-69
2022/02/26 04:03:32;;;;;;;0.40;0.20;;;;;;;4.83;100.00;102134.03;5034488;28;20447;-68
2022/02/26 04:06:00;;;;;;;0.40;0.23;;;;;;;4.82;100.00;102135.88;5033729;28;20436;-68
2022/02/26 04:08:28;;;;;;;0.40;0.30;;;;;;;4.79;100.00;102137.16;5033708;28;21060;-68
2022/02/26 04:10:55;;;;;;;0.40;0.20;;;;;;;4.73;100.00;102148.75;5034235;28;20516;-68
2022/02/26 04:13:21;;;;;;;0.40;0.30;;;;;;;4.71;100.00;102150.88;5034167;28;20863;-67
2022/02/26 04:15:48;;;;;;;0.40;0.20;;;;;;;4.66;100.00;102150.72;5033794;28;20486;-68
2022/02/26 04:18:14;;;;;;;0.40;0.20;;;;;;;4.47;100.00;102157.94;5033276;28;20482;-67
2022/02/26 04:20:40;;;;;;;0.40;0.20;;;;;;;4.51;100.00;102163.66;5034610;28;20452;-67
2022/02/26 04:23:09;;;;;;;0.40;0.30;;;;;;;4.54;100.00;102171.28;5034075;28;20846;-68
2022/02/26 04:25:36;;;;;;;0.40;0.30;;;;;;;4.51;100.00;102169.84;5034070;28;20451;-67
2022/02/26 04:28:02;;;;;;;0.40;0.30;;;;;;;4.51;100.00;102174.38;5033816;28;20481;-68
2022/02/26 04:30:29;;;;;;;0.40;0.30;;;;;;;4.54;100.00;102187.38;5029538;28;20456;-67
2022/02/26 04:32:55;;;;;;;0.40;0.30;;;;;;;4.50;100.00;102191.53;5020431;28;20447;-68
2022/02/26 04:35:23;;;;;;;0.50;0.40;;;;;;;4.52;100.00;102194.84;5033971;28;20493;-67
2022/02/26 04:37:49;;;;;;;0.40;0.30;;;;;;;4.56;100.00;102193.34;5033800;28;20470;-68
2022/02/26 04:40:17;;;;;;;0.40;0.20;;;;;;;4.62;100.00;102199.69;5033379;28;20447;-68
2022/02/26 04:42:44;;;;;;;0.40;0.20;;;;;;;4.60;100.00;102194.53;5033656;28;20447;-70
2022/02/26 04:45:12;;;;;;;0.40;0.20;;;;;;;4.67;100.00;102205.22;5033488;28;20451;-67
2022/02/26 04:47:41;;;;;;;0.40;0.20;;;;;;;4.73;100.00;102202.44;5033417;28;20820;-67
2022/02/26 04:50:09;;;;;;;0.40;0.30;;;;;;;4.77;100.00;102205.50;5033093;28;20501;-67
2022/02/26 04:52:36;;;;;;;0.40;0.20;;;;;;;4.86;100.00;102217.59;5033785;28;20450;-68
2022/02/26 04:55:03;;;;;;;0.40;0.30;;;;;;;4.93;100.00;102223.72;5033374;28;20450;-69
2022/02/26 04:57:31;;;;;;;0.40;0.20;;;;;;;4.91;100.00;102219.63;5032194;28;20486;-69
2022/02/26 04:59:57;;;;;;;0.40;0.30;;;;;;;4.94;100.00;102224.56;5013919;28;20444;-69
2022/02/26 05:02:24;;;;;;;2.10;2.00;;;;;;;5.02;100.00;102222.41;5032080;28;20494;-68
2022/02/26 05:04:50;;;;;;;0.40;0.27;;;;;;;5.06;100.00;102233.50;5033273;28;20454;-70
2022/02/26 05:07:19;;;;;;;0.40;0.30;;;;;;;5.09;99.58;102238.44;5032798;28;20466;-67
2022/02/26 05:09:45;;;;;;;0.40;0.30;;;;;;;5.13;99.46;102228.88;5033209;28;20455;-68
2022/02/26 05:12:12;;;;;;;0.40;0.20;;;;;;;5.13;99.61;102239.63;5032827;28;20467;-68
2022/02/26 05:14:40;;;;;;;0.40;0.30;;;;;;;5.10;99.39;102240.09;5032728;28;20435;-69
2022/02/26 05:17:07;;;;;;;0.40;0.20;;;;;;;5.19;99.15;102245.97;5033372;28;20899;-67
2022/02/26 05:19:33;;;;;;;0.40;0.27;;;;;;;5.21;98.89;102252.75;5031916;28;20952;-69
2022/02/26 05:22:00;;;;;;;0.40;0.30;;;;;;;5.26;98.03;102260.97;5032629;28;20498;-67
2022/02/26 05:24:26;;;;;;;0.40;0.20;;;;;;;5.28;98.04;102258.88;5032751;28;20865;-68
2022/02/26 05:26:52;;;;;;;0.40;0.30;;;;;;;5.32;98.33;102270.00;5033043;28;20439;-68
2022/02/26 05:29:19;;;;;;;0.40;0.30;;;;;;;5.34;98.16;102272.47;5032891;28;20520;-68
2022/02/26 05:31:47;;;;;;;1.07;0.97;;;;;;;5.31;98.30;102279.94;5033040;28;20479;-67
2022/02/26 05:34:14;;;;;;;0.40;0.20;;;;;;;5.37;98.09;102286.28;5032614;28;20444;-68
2022/02/26 05:36:40;;;;;;;0.40;0.30;;;;;;;5.34;98.45;102297.47;5032911;28;20497;-67
2022/02/26 05:39:06;;;;;;;0.40;0.30;;;;;;;5.36;98.13;102298.06;5032054;28;20516;-66
2022/02/26 05:41:33;;;;;;;0.40;0.20;;;;;;;5.37;97.77;102301.56;5033171;28;20454;-67
2022/02/26 05:43:59;;;;;;;0.40;0.30;;;;;;;5.40;97.58;102317.22;5032493;28;20940;-67
2022/02/26 05:46:26;;;;;;;0.40;0.23;;;;;;;5.44;97.77;102315.75;5032533;28;20444;-67
2022/02/26 05:48:54;;;;;;;0.40;0.30;;;;;;;5.44;97.56;102327.31;5032520;28;20467;-67
2022/02/26 05:51:20;;;;;;;0.40;0.30;;;;;;;5.45;97.48;102322.78;5032875;28;20501;-65
2022/02/26 05:53:46;;;;;;;0.40;0.30;;;;;;;5.45;97.13;102328.97;5032495;28;20455;-65
2022/02/26 05:56:13;;;;;;;0.40;0.30;;;;;;;5.46;97.11;102338.66;5032158;28;20527;-67
2022/02/26 05:58:39;;;;;;;0.40;0.30;;;;;;;5.43;97.44;102339.09;5026381;28;20467;-66
2022/02/26 06:01:06;;;;;;;0.40;0.20;;;;;;;5.42;97.47;102344.72;5013291;28;20447;-67
2022/02/26 06:03:32;;;;;;;0.40;0.30;;;;;;;5.46;97.11;102353.97;5030534;28;20447;-70
2022/02/26 06:06:00;;;;;;;0.40;0.20;;;;;;;5.47;96.36;102359.13;5032656;28;20493;-68
2022/02/26 06:08:27;;;;;;;0.40;0.30;;;;;;;5.47;96.07;102369.06;5031520;28;20455;-69
2022/02/26 06:10:53;;;;;;;0.40;0.30;;;;;;;5.45;96.35;102366.59;5036154;28;20461;-68
2022/02/26 06:13:20;;;;;;;0.40;0.30;;;;;;;5.44;96.20;102374.84;5036643;28;20447;-68
2022/02/26 06:15:46;;;;;;;0.40;0.30;;;;;;;5.42;96.81;102383.16;5036364;28;20443;-69
2022/02/26 06:18:12;;;;;;;0.40;0.30;;;;;;;5.42;97.02;102388.53;5037048;28;20490;-68
2022/02/26 06:20:39;;;;;;;0.40;0.20;;;;;;;5.46;97.45;102388.91;5036202;28;20459;-68
2022/02/26 06:23:07;;;;;;;0.40;0.30;;;;;;;5.45;96.93;102389.97;5023221;28;20494;-68
2022/02/26 06:25:33;;;;;;;0.40;0.20;;;;;;;5.45;96.88;102385.41;5032984;28;20443;-69
2022/02/26 06:28:00;;;;;;;0.40;0.30;;;;;;;5.48;96.74;102397.56;5036454;28;20470;-70
2022/02/26 06:30:27;;;;;;;0.40;0.30;;;;;;;5.43;96.64;102397.41;5036121;28;20453;-68
2022/02/26 06:32:54;;;;;;;0.40;0.30;;;;;;;5.43;96.93;102405.47;5036104;28;20478;-68
2022/02/26 06:35:20;;;;;;;0.40;0.30;;;;;;;5.47;96.70;102412.06;5035844;28;20457;-69
2022/02/26 06:37:47;;;;;;;0.40;0.30;;;;;;;5.50;95.78;102406.25;5035775;28;20483;-68
2022/02/26 06:40:15;;;;;;;0.40;0.20;;;;;;;5.51;96.06;102413.25;5032029;28;20439;-69
2022/02/26 06:42:41;;;;;;;0.40;0.30;;;;;;;5.52;96.13;102413.03;5035673;28;20454;-69
2022/02/26 06:45:09;;;;;;;0.40;0.30;;;;;;;5.51;95.82;102429.38;5035922;28;20455;-68
2022/02/26 06:47:35;;;;;;;0.40;0.20;;;;;;;5.54;95.89;102429.75;5035850;28;20470;-70
2022/02/26 06:50:02;;;;;;;0.40;0.30;;;;;;;5.54;95.08;102435.13;5035638;28;20948;-68
2022/02/26 06:52:29;;;;;;;0.40;0.20;;;;;;;5.52;94.75;102442.59;5036096;28;20445;-70
2022/02/26 06:54:57;;;;;;;0.40;0.20;;;;;;;5.55;95.29;102446.72;5035189;28;20455;-68
2022/02/26 06:57:24;;;;;;;0.40;0.23;;;;;;;5.56;95.03;102448.34;5032998;28;20490;-70
2022/02/26 06:59:51;;;;;;;0.40;0.30;;;;;;;5.56;94.97;102456.41;5035923;28;20447;-68
2022/02/26 07:02:17;;;;;;;0.40;0.30;;;;;;;5.55;94.33;102458.28;5035648;28;20455;-66
2022/02/26 07:04:44;;;;;;;0.40;0.27;;;;;;;5.43;94.92;102460.03;5035287;28;20933;-68
2022/02/26 07:07:11;;;;;;;0.40;0.20;;;;;;;5.54;94.79;102469.25;5035334;28;20514;-66
2022/02/26 07:09:37;;;;;;;0.40;0.30;;;;;;;5.55;94.95;102468.22;5035824;28;20443;-69
2022/02/26 07:12:05;;;;;;;0.40;0.30;;;;;;;5.59;94.55;102472.09;5035839;28;20457;-67
2022/02/26 07:14:34;;;;;;;0.40;0.30;;;;;;;5.56;93.20;102480.59;5035662;28;20534;-68
2022/02/26 07:17:00;;;;;;;0.40;0.30;;;;;;;5.49;94.07;102485.19;5034923;28;20487;-67
2022/02/26 07:19:27;;;;;;;2.97;1.90;;;;;;;5.50;94.09;102486.88;5034609;28;20483;-69
2022/02/26 07:21:56;;;;;;;0.40;0.30;;;;;;;5.51;93.77;102493.88;5035049;28;20802;-67
2022/02/26 07:24:23;;;;;;;0.40;0.30;;;;;;;5.53;93.43;102491.78;5035095;28;20447;-70
2022/02/26 07:26:49;;;;;;;0.40;0.30;;;;;;;5.57;93.07;102490.31;5035394;28;20451;-68
2022/02/26 07:29:16;;;;;;;0.40;0.30;;;;;;;5.60;93.19;102497.94;5035061;28;20473;-67
2022/02/26 07:31:44;;;;;;;0.40;0.20;;;;;;;5.64;93.14;102504.53;5034936;28;20447;-67
2022/02/26 07:34:10;;;;;;;0.40;0.30;;;;;;;5.68;92.06;102507.59;5035161;28;20443;-66
2022/02/26 07:36:37;;;;;;;0.40;0.30;;;;;;;5.64;91.55;102517.97;5034392;28;20891;-68
2022/02/26 07:39:04;;;;;;;0.40;0.30;;;;;;;5.71;91.70;102520.56;5034799;28;20470;-67
2022/02/26 07:41:31;;;;;;;0.40;0.30;;;;;;;5.67;91.99;102517.53;5034673;28;20980;-69
2022/02/26 07:43:58;;;;;;;0.40;0.27;;;;;;;5.75;92.00;102521.78;5034884;28;20447;-68
2022/02/26 07:46:25;;;;;;;0.40;0.30;;;;;;;5.82;92.12;102526.06;5034659;28;20454;-68
2022/02/26 07:48:52;;;;;;;0.40;0.30;;;;;;;5.79;91.20;102539.13;5033676;28;20471;-69
2022/02/26 07:51:19;;;;;;;0.40;0.30;;;;;;;5.74;91.00;102549.72;5031969;28;20450;-67
2022/02/26 07:53:45;;;;;;;0.40;0.20;;;;;;;5.77;91.25;102543.91;5034780;28;20443;-70
2022/02/26 07:56:12;;;;;;;0.40;0.30;;;;;;;5.89;91.36;102547.53;5034714;28;20450;-69
2022/02/26 07:58:39;;;;;;;0.40;0.23;;;;;;;5.96;91.15;102545.63;5034360;28;20479;-70
2022/02/26 08:01:05;;;;;;;0.50;0.40;;;;;;;6.00;90.96;102551.38;5034614;28;20439;-69
2022/02/26 08:03:32;;;;;;;0.40;0.30;;;;;;;6.00;90.74;102562.13;5034512;28;20447;-68
2022/02/26 08:06:00;;;;;;;0.40;0.30;;;;;;;6.04;90.16;102569.53;5034741;28;20443;-69
2022/02/26 08:08:26;;;;;;;0.40;0.30;;;;;;;6.04;90.31;102555.28;5033569;28;20470;-69
2022/02/26 08:10:52;;;;;;;0.40;0.30;;;;;;;6.10;90.83;102577.78;5034605;28;20466;-68
2022/02/26 08:13:19;;;;;;;0.40;0.30;;;;;;;6.18;91.07;102574.78;5034384;28;20447;-68
2022/02/26 08:15:45;;;;;;;0.40;0.30;;;;;;;6.22;90.79;102576.81;5034531;28;20454;-68
2022/02/26 08:18:13;;;;;;;0.40;0.30;;;;;;;6.23;90.48;102593.78;5033521;28;20497;-69
2022/02/26 08:20:40;;;;;;;0.40;0.30;;;;;;;6.24;90.06;102590.03;5034346;28;20451;-68
2022/02/26 08:23:07;;;;;;;0.40;0.30;;;;;;;6.22;89.88;102587.59;5019348;28;20448;-67
2022/02/26 08:25:35;;;;;;;0.40;0.30;;;;;;;6.10;89.82;102594.72;5017837;28;20953;-70
2022/02/26 08:28:01;;;;;;;0.40;0.23;;;;;;;6.11;90.05;102607.16;5033655;28;21013;-69
2022/02/26 08:30:28;;;;;;;0.40;0.20;;;;;;;5.97;89.52;102606.44;5033699;28;20447;-68
2022/02/26 08:32:54;;;;;;;0.40;0.30;;;;;;;6.04;89.79;102609.06;5033392;28;20452;-69
2022/02/26 08:35:21;;;;;;;0.40;0.30;;;;;;;6.10;91.11;102618.13;5031823;28;20454;-70
2022/02/26 08:37:47;;;;;;;0.40;0.30;;;;;;;6.15;90.61;102619.09;5033933;28;20506;-69
2022/02/26 08:40:16;;;;;;;0.40;0.30;;;;;;;6.16;90.10;102628.84;5033440;28;20822;-68
2022/02/26 08:42:43;;;;;;;0.40;0.30;;;;;;;6.12;89.83;102632.19;5034085;28;20443;-68
2022/02/26 08:45:11;;;;;;;0.40;0.30;;;;;;;6.05;89.78;102634.94;5033269;28;21226;-68
2022/02/26 08:47:37;;;;;;;0.40;0.30;;;;;;;6.04;90.42;102639.47;5033343;28;21008;-69
2022/02/26 08:50:08;;;;;;;0.40;0.20;;;;;;;6.11;90.65;102654.75;5033613;28;20470;-70
2022/02/26 08:52:34;;;;;;;0.40;0.20;;;;;;;6.00;91.17;102649.03;5029686;28;20984;-69
2022/02/26 08:55:01;;;;;;;0.40;0.30;;;;;;;6.00;91.13;102653.59;5033609;28;20458;-68
2022/02/26 08:57:29;;;;;;;0.40;0.30;;;;;;;6.05;91.18;102662.66;5033189;28;20486;-70
2022/02/26 08:59:55;;;;;;;0.40;0.30;;;;;;;6.07;90.97;102665.13;5033314;28;20461;-68
2022/02/26 09:02:22;;;;;;;0.40;0.30;;;;;;;6.15;91.19;102672.91;5033714;28;20439;-64
2022/02/26 09:04:48;;;;;;;0.40;0.30;;;;;;;6.21;90.80;102672.03;5024782;28;20461;-66
2022/02/26 09:07:15;;;;;;;0.40;0.30;;;;;;;6.28;91.64;102678.19;5033590;28;20443;-68
2022/02/26 09:09:41;;;;;;;0.40;0.30;;;;;;;6.32;90.88;102678.56;5033309;28;20446;-69
2022/02/26 09:12:08;;;;;;;0.40;0.30;;;;;;;6.20;90.63;102678.47;5032672;28;20827;-69
2022/02/26 09:14:36;;;;;;;0.40;0.20;;;;;;;6.30;90.82;102676.09;5033293;28;20451;-68
2022/02/26 09:17:03;;;;;;;0.40;0.30;;;;;;;6.43;90.82;102671.66;5029509;28;20495;-67
2022/02/26 09:19:30;;;;;;;0.40;0.30;;;;;;;6.51;89.85;102677.56;5032273;28;20491;-65
2022/02/26 09:21:58;;;;;;;0.83;0.83;;;;;;;6.55;89.68;102683.31;5032699;28;20967;-68
2022/02/26 09:24:24;;;;;;;0.40;0.30;;;;;;;6.55;90.21;102692.25;5033403;28;20459;-66
2022/02/26 09:26:51;;;;;;;0.40;0.23;;;;;;;6.64;90.87;102698.16;5033017;28;20448;-66
2022/02/26 09:29:17;;;;;;;0.40;0.30;;;;;;;6.75;90.35;102697.41;5032737;28;20467;-66
2022/02/26 09:31:50;;;;;;;0.40;0.30;;;;;;;6.87;89.21;102705.59;5033576;28;20440;-66
2022/02/26 09:34:17;;;;;;;0.40;0.30;;;;;;;6.90;88.18;102705.13;5033066;28;20936;-67
2022/02/26 09:36:44;;;;;;;0.40;0.30;;;;;;;6.98;88.41;102707.53;5032351;28;20462;-68
2022/02/26 09:39:10;;;;;;;0.40;0.30;;;;;;;6.96;87.85;102708.81;5032718;28;21000;-66
2022/02/26 09:41:38;;;;;;;0.40;0.20;;;;;;;6.99;86.97;102717.25;5032905;28;20443;-68
2022/02/26 09:44:06;;;;;;;0.40;0.30;;;;;;;7.00;87.43;102718.09;5035692;28;20955;-66
2022/02/26 09:46:32;;;;;;;0.40;0.30;;;;;;;6.61;86.39;102733.59;5036703;28;20910;-67
2022/02/26 09:49:00;;;;;;;0.40;0.27;;;;;;;6.55;87.00;102729.94;5037305;28;20516;-66
2022/02/26 09:51:29;;;;;;;4.30;3.90;;;;;;;6.51;87.53;102744.06;5036626;28;20451;-69
2022/02/26 09:53:56;;;;;;;0.40;0.30;;;;;;;6.50;88.30;102742.38;5037242;28;20459;-66
2022/02/26 09:56:23;;;;;;;0.40;0.20;;;;;;;6.53;87.61;102741.97;5036783;28;20450;-67
2022/02/26 09:58:50;;;;;;;0.40;0.30;;;;;;;6.58;88.10;102740.25;5036794;28;20574;-68
2022/02/26 10:01:16;;;;;;;0.40;0.30;;;;;;;6.75;87.45;102745.91;5029496;28;20455;-66
2022/02/26 10:03:42;;;;;;;0.40;0.30;;;;;;;6.88;88.25;102742.25;5030815;28;20435;-67
2022/02/26 10:06:13;;;;;;;0.40;0.23;;;;;;;6.80;86.38;102751.44;5031379;28;20959;-66
2022/02/26 10:08:41;;;;;;;0.40;0.30;;;;;;;6.50;84.45;102743.22;5028256;28;20455;-67
2022/02/26 10:11:21;;;;;;;0.40;0.20;;;;;;;6.59;85.70;102749.13;5019543;28;20444;-68
2022/02/26 10:13:48;;;;;;;0.40;0.20;;;;;;;6.65;83.65;102748.28;5030214;28;20809;-69
2022/02/26 10:16:14;;;;;;;0.40;0.30;;;;;;;6.82;83.69;102754.75;5027295;28;20490;-69
2022/02/26 10:18:51;;;;;;;0.40;0.30;;;;;;;7.05;84.32;102755.97;5024151;28;20495;-70
2022/02/26 10:21:29;;;;;;;0.40;0.30;;;;;;;7.17;83.28;102751.50;5027721;28;20452;-68
2022/02/26 10:23:56;;;;;;;0.40;0.30;;;;;;;7.27;82.64;102751.78;5025012;28;20964;-69
2022/02/26 10:26:26;;;;;;;0.40;0.30;;;;;;;7.03;82.17;102758.03;5029597;28;20450;-69
2022/02/26 10:29:06;;;;;;;0.40;0.30;;;;;;;7.03;81.92;102761.56;5028034;28;20539;-69
2022/02/26 10:31:42;;;;;;;0.40;0.30;;;;;;;7.01;80.16;102770.94;5029832;28;20431;-70
2022/02/26 10:34:24;;;;;;;0.40;0.30;;;;;;;7.03;80.92;102776.91;5029891;28;20441;-68
2022/02/26 10:36:58;;;;;;;0.40;0.30;;;;;;;7.06;81.03;102781.88;5036679;28;20436;-69
2022/02/26 10:39:30;;;;;;;0.40;0.30;;;;;;;7.02;80.94;102776.09;5034421;28;20474;-70
2022/02/26 10:41:56;;;;;;;0.40;0.30;;;;;;;6.89;81.39;102786.19;5024701;28;20450;-70
2022/02/26 10:44:23;;;;;;;0.40;0.30;;;;;;;7.03;80.83;102783.13;5028330;28;20458;-73
2022/02/26 10:46:50;;;;;;;2.40;1.23;;;;;;;7.02;80.58;102781.47;5028489;28;20444;-69
2022/02/26 10:49:20;;;;;;;1.90;1.80;;;;;;;7.12;81.54;102782.84;5028244;28;20531;-69
2022/02/26 10:51:49;;;;;;;3.30;3.10;;;;;;;7.15;79.95;102785.09;5028111;28;20528;-68
2022/02/26 10:54:24;;;;;;;0.40;0.30;;;;;;;7.30;79.74;102789.06;5033520;28;20455;-68
2022/02/26 10:56:52;;;;;;;0.40;0.30;;;;;;;7.37;79.40;102785.47;5034111;28;20443;-68
2022/02/26 10:59:31;;;;;;;0.40;0.30;;;;;;;7.48;80.08;102782.84;5034868;28;21023;-69
2022/02/26 11:02:04;;;;;;;0.40;0.30;;;;;;;7.69;79.40;102784.22;5031185;28;20447;-68
2022/02/26 11:04:30;;;;;;;0.40;0.30;;;;;;;7.81;77.05;102787.81;5025317;28;20431;-69
2022/02/26 11:06:58;;;;;;;0.40;0.23;;;;;;;8.04;77.99;102780.88;5027234;28;20973;-68
2022/02/26 11:09:27;;;;;;;0.40;0.30;;;;;;;8.15;76.16;102790.88;5022797;28;20539;-69
2022/02/26 11:11:56;;;;;;;0.40;0.27;;;;;;;8.08;74.43;102792.84;5028506;28;20444;-69
2022/02/26 11:14:25;;;;;;;0.40;0.30;;;;;;;8.01;74.38;102800.19;5022191;28;20452;-69
2022/02/26 11:16:56;;;;;;;0.40;0.30;;;;;;;8.06;75.38;102792.28;5025052;28;20475;-69
2022/02/26 11:19:25;;;;;;;0.40;0.30;;;;;;;7.97;76.47;102796.31;5016608;28;20491;-69
2022/02/26 11:21:52;;;;;;;0.40;0.30;;;;;;;7.95;76.40;102804.66;5031651;28;20482;-70
2022/02/26 11:24:19;;;;;;;0.40;0.30;;;;;;;8.01;76.83;102798.34;5030222;28;20450;-69
2022/02/26 11:26:48;;;;;;;0.40;0.30;;;;;;;7.96;75.28;102795.50;5020669;28;20450;-69
2022/02/26 11:29:18;;;;;;;0.40;0.30;;;;;;;7.88;74.58;102797.69;5030112;28;20478;-69
2022/02/26 11:31:52;;;;;;;0.40;0.30;;;;;;;7.80;74.19;102796.97;5030373;28;20522;-69
2022/02/26 11:34:23;;;;;;;0.40;0.30;;;;;;;7.71;73.73;102795.63;5020883;28;20509;-70